sensor_id;sensor_type;location;lat;lon;timestamp;temperature;humidity
45008;DHT22;30743;52.008;5.644;2023-04-26T00:00:13;9.70;99.90
45008;DHT22;30743;52.008;5.644;2023-04-26T00:02:39;9.70;99.90
45008;DHT22;30743;52.008;5.644;2023-04-26T00:05:05;9.70;99.90
45008;DHT22;30743;52.008;5.644;2023-04-26T00:07:32;9.70;99.90
45008;DHT22;30743;52.008;5.644;2023-04-26T00:09:58;9.70;99.90
45008;DHT22;30743;52.008;5.644;2023-04-26T00:12:24;9.60;99.90
45008;DHT22;30743;52.008;5.644;2023-04-26T00:14:49;9.60;99.90
45008;DHT22;30743;52.008;5.644;2023-04-26T00:17:15;9.50;99.90
45008;DHT22;30743;52.008;5.644;2023-04-26T00:19:40;9.50;99.90
45008;DHT22;30743;52.008;5.644;2023-04-26T00:22:06;9.50;99.90
45008;DHT22;30743;52.008;5.644;2023-04-26T00:24:33;9.50;99.90
45008;DHT22;30743;52.008;5.644;2023-04-26T00:26:59;9.50;99.90
45008;DHT22;30743;52.008;5.644;2023-04-26T00:29:26;9.40;99.90
45008;DHT22;30743;52.008;5.644;2023-04-26T00:31:51;9.40;99.90
45008;DHT22;30743;52.008;5.644;2023-04-26T00:34:17;9.40;99.90
45008;DHT22;30743;52.008;5.644;2023-04-26T00:36:43;9.40;99.90
45008;DHT22;30743;52.008;5.644;2023-04-26T00:39:08;9.30;99.90
45008;DHT22;30743;52.008;5.644;2023-04-26T00:41:34;9.20;99.90
45008;DHT22;30743;52.008;5.644;2023-04-26T00:44:00;9.20;99.90
45008;DHT22;30743;52.008;5.644;2023-04-26T00:46:26;9.10;99.90
45008;DHT22;30743;52.008;5.644;2023-04-26T00:48:53;9.10;99.90
45008;DHT22;30743;52.008;5.644;2023-04-26T00:51:19;9.10;99.90
45008;DHT22;30743;52.008;5.644;2023-04-26T00:53:45;9.10;99.90
45008;DHT22;30743;52.008;5.644;2023-04-26T00:56:11;9.00;99.90
45008;DHT22;30743;52.008;5.644;2023-04-26T00:58:37;8.90;99.90
45008;DHT22;30743;52.008;5.644;2023-04-26T01:01:02;8.80;99.90
45008;DHT22;30743;52.008;5.644;2023-04-26T01:03:28;8.70;99.90
45008;DHT22;30743;52.008;5.644;2023-04-26T01:05:54;8.70;99.90
45008;DHT22;30743;52.008;5.644;2023-04-26T01:08:21;8.70;99.90
45008;DHT22;30743;52.008;5.644;2023-04-26T01:10:48;8.60;99.90
45008;DHT22;30743;52.008;5.644;2023-04-26T01:13:14;8.70;99.90
45008;DHT22;30743;52.008;5.644;2023-04-26T01:15:44;8.70;99.90
45008;DHT22;30743;52.008;5.644;2023-04-26T01:18:10;8.70;99.90
45008;DHT22;30743;52.008;5.644;2023-04-26T01:20:36;8.70;99.90
45008;DHT22;30743;52.008;5.644;2023-04-26T01:23:02;8.70;99.90
45008;DHT22;30743;52.008;5.644;2023-04-26T01:25:28;8.70;99.90
45008;DHT22;30743;52.008;5.644;2023-04-26T01:27:53;8.60;99.90
45008;DHT22;30743;52.008;5.644;2023-04-26T01:30:19;8.50;99.90
45008;DHT22;30743;52.008;5.644;2023-04-26T01:32:44;8.60;99.90
45008;DHT22;30743;52.008;5.644;2023-04-26T01:35:10;8.70;99.90
45008;DHT22;30743;52.008;5.644;2023-04-26T01:37:36;8.70;99.90
45008;DHT22;30743;52.008;5.644;2023-04-26T01:40:02;8.70;99.90
45008;DHT22;30743;52.008;5.644;2023-04-26T01:42:31;8.80;99.90
45008;DHT22;30743;52.008;5.644;2023-04-26T01:44:56;8.80;99.90
45008;DHT22;30743;52.008;5.644;2023-04-26T01:47:22;8.80;99.90
45008;DHT22;30743;52.008;5.644;2023-04-26T01:49:48;8.80;99.90
45008;DHT22;30743;52.008;5.644;2023-04-26T01:52:13;8.80;99.90
45008;DHT22;30743;52.008;5.644;2023-04-26T01:54:39;8.80;99.90
45008;DHT22;30743;52.008;5.644;2023-04-26T01:57:04;8.70;99.90
45008;DHT22;30743;52.008;5.644;2023-04-26T01:59:30;8.70;99.90
45008;DHT22;30743;52.008;5.644;2023-04-26T02:01:55;8.60;99.90
45008;DHT22;30743;52.008;5.644;2023-04-26T02:04:21;8.60;99.90
45008;DHT22;30743;52.008;5.644;2023-04-26T02:06:48;8.60;99.90
45008;DHT22;30743;52.008;5.644;2023-04-26T02:09:13;8.50;99.90
45008;DHT22;30743;52.008;5.644;2023-04-26T02:11:40;8.40;99.90
45008;DHT22;30743;52.008;5.644;2023-04-26T02:14:05;8.40;99.90
45008;DHT22;30743;52.008;5.644;2023-04-26T02:16:31;8.40;99.90
45008;DHT22;30743;52.008;5.644;2023-04-26T02:18:57;8.40;99.90
45008;DHT22;30743;52.008;5.644;2023-04-26T02:21:23;8.50;99.90
45008;DHT22;30743;52.008;5.644;2023-04-26T02:23:49;8.50;99.90
45008;DHT22;30743;52.008;5.644;2023-04-26T02:26:15;8.40;99.90
45008;DHT22;30743;52.008;5.644;2023-04-26T02:28:40;8.50;99.90
45008;DHT22;30743;52.008;5.644;2023-04-26T02:31:06;8.50;99.90
45008;DHT22;30743;52.008;5.644;2023-04-26T02:33:32;8.50;99.90
45008;DHT22;30743;52.008;5.644;2023-04-26T02:35:58;8.50;99.90
45008;DHT22;30743;52.008;5.644;2023-04-26T02:38:24;8.40;99.90
45008;DHT22;30743;52.008;5.644;2023-04-26T02:40:59;8.50;99.90
45008;DHT22;30743;52.008;5.644;2023-04-26T02:43:25;8.50;99.90
45008;DHT22;30743;52.008;5.644;2023-04-26T02:45:51;8.50;99.90
45008;DHT22;30743;52.008;5.644;2023-04-26T02:48:16;8.30;99.90
45008;DHT22;30743;52.008;5.644;2023-04-26T02:50:42;8.30;99.90
45008;DHT22;30743;52.008;5.644;2023-04-26T02:53:07;8.20;99.90
45008;DHT22;30743;52.008;5.644;2023-04-26T02:55:33;8.20;99.90
45008;DHT22;30743;52.008;5.644;2023-04-26T02:57:58;8.20;99.90
45008;DHT22;30743;52.008;5.644;2023-04-26T03:00:24;8.20;99.90
45008;DHT22;30743;52.008;5.644;2023-04-26T03:02:50;8.20;99.90
45008;DHT22;30743;52.008;5.644;2023-04-26T03:05:16;8.20;99.90
45008;DHT22;30743;52.008;5.644;2023-04-26T03:07:41;8.10;99.90
45008;DHT22;30743;52.008;5.644;2023-04-26T03:10:07;8.20;99.90
45008;DHT22;30743;52.008;5.644;2023-04-26T03:12:34;8.20;99.90
45008;DHT22;30743;52.008;5.644;2023-04-26T03:14:59;8.20;99.90
45008;DHT22;30743;52.008;5.644;2023-04-26T03:17:27;8.20;99.90
45008;DHT22;30743;52.008;5.644;2023-04-26T03:19:53;8.30;99.90
45008;DHT22;30743;52.008;5.644;2023-04-26T03:22:18;8.10;99.90
45008;DHT22;30743;52.008;5.644;2023-04-26T03:24:44;8.00;99.90
45008;DHT22;30743;52.008;5.644;2023-04-26T03:27:10;8.00;99.90
45008;DHT22;30743;52.008;5.644;2023-04-26T03:29:35;8.00;99.90
45008;DHT22;30743;52.008;5.644;2023-04-26T03:32:01;8.00;99.90
45008;DHT22;30743;52.008;5.644;2023-04-26T03:34:27;8.00;99.90
45008;DHT22;30743;52.008;5.644;2023-04-26T03:36:53;8.00;99.90
45008;DHT22;30743;52.008;5.644;2023-04-26T03:39:18;7.90;99.90
45008;DHT22;30743;52.008;5.644;2023-04-26T03:41:44;7.90;99.90
45008;DHT22;30743;52.008;5.644;2023-04-26T03:44:10;8.00;99.90
45008;DHT22;30743;52.008;5.644;2023-04-26T03:46:36;7.90;99.90
45008;DHT22;30743;52.008;5.644;2023-04-26T03:49:02;7.90;99.90
45008;DHT22;30743;52.008;5.644;2023-04-26T03:51:28;8.00;99.90
45008;DHT22;30743;52.008;5.644;2023-04-26T03:53:54;7.90;99.90
45008;DHT22;30743;52.008;5.644;2023-04-26T03:56:19;8.00;99.90
45008;DHT22;30743;52.008;5.644;2023-04-26T03:58:45;7.90;99.90
45008;DHT22;30743;52.008;5.644;2023-04-26T04:01:11;7.90;99.90
45008;DHT22;30743;52.008;5.644;2023-04-26T04:03:36;7.90;99.90
45008;DHT22;30743;52.008;5.644;2023-04-26T04:06:02;7.90;99.90
45008;DHT22;30743;52.008;5.644;2023-04-26T04:08:28;8.00;99.90
45008;DHT22;30743;52.008;5.644;2023-04-26T04:10:53;8.00;99.90
45008;DHT22;30743;52.008;5.644;2023-04-26T04:13:19;8.00;99.90
45008;DHT22;30743;52.008;5.644;2023-04-26T04:15:44;8.00;99.90
45008;DHT22;30743;52.008;5.644;2023-04-26T04:18:10;7.90;99.90
45008;DHT22;30743;52.008;5.644;2023-04-26T04:20:35;7.90;99.90
45008;DHT22;30743;52.008;5.644;2023-04-26T04:23:01;7.90;99.90
45008;DHT22;30743;52.008;5.644;2023-04-26T04:25:28;7.80;99.90
45008;DHT22;30743;52.008;5.644;2023-04-26T04:27:54;7.80;99.90
45008;DHT22;30743;52.008;5.644;2023-04-26T04:30:20;7.80;99.90
45008;DHT22;30743;52.008;5.644;2023-04-26T04:32:45;7.90;99.90
45008;DHT22;30743;52.008;5.644;2023-04-26T04:35:11;7.90;99.90
45008;DHT22;30743;52.008;5.644;2023-04-26T04:37:37;7.90;99.90
45008;DHT22;30743;52.008;5.644;2023-04-26T04:40:03;7.90;99.90
45008;DHT22;30743;52.008;5.644;2023-04-26T04:42:29;7.90;99.90
45008;DHT22;30743;52.008;5.644;2023-04-26T04:44:55;7.90;99.90
45008;DHT22;30743;52.008;5.644;2023-04-26T04:47:21;7.90;99.90
45008;DHT22;30743;52.008;5.644;2023-04-26T04:49:46;8.00;99.90
45008;DHT22;30743;52.008;5.644;2023-04-26T04:52:12;8.00;99.90
45008;DHT22;30743;52.008;5.644;2023-04-26T04:54:37;8.10;99.90
45008;DHT22;30743;52.008;5.644;2023-04-26T04:57:04;8.10;99.90
45008;DHT22;30743;52.008;5.644;2023-04-26T04:59:29;8.20;99.90
45008;DHT22;30743;52.008;5.644;2023-04-26T05:01:55;8.20;99.90
45008;DHT22;30743;52.008;5.644;2023-04-26T05:04:21;8.30;99.90
45008;DHT22;30743;52.008;5.644;2023-04-26T05:06:46;8.30;99.90
45008;DHT22;30743;52.008;5.644;2023-04-26T05:09:12;8.40;99.90
45008;DHT22;30743;52.008;5.644;2023-04-26T05:11:38;8.40;99.90
45008;DHT22;30743;52.008;5.644;2023-04-26T05:14:03;8.50;99.90
45008;DHT22;30743;52.008;5.644;2023-04-26T05:16:29;8.60;99.90
45008;DHT22;30743;52.008;5.644;2023-04-26T05:18:54;8.60;99.90
45008;DHT22;30743;52.008;5.644;2023-04-26T05:21:20;8.80;99.90
45008;DHT22;30743;52.008;5.644;2023-04-26T05:23:46;8.90;99.90
45008;DHT22;30743;52.008;5.644;2023-04-26T05:26:13;9.00;99.90
45008;DHT22;30743;52.008;5.644;2023-04-26T05:28:39;9.10;99.90
45008;DHT22;30743;52.008;5.644;2023-04-26T05:31:05;9.20;99.90
45008;DHT22;30743;52.008;5.644;2023-04-26T05:33:31;9.30;99.90
45008;DHT22;30743;52.008;5.644;2023-04-26T05:35:56;9.40;99.90
45008;DHT22;30743;52.008;5.644;2023-04-26T05:38:23;9.50;99.90
45008;DHT22;30743;52.008;5.644;2023-04-26T05:40:48;9.60;99.90
45008;DHT22;30743;52.008;5.644;2023-04-26T05:43:14;9.70;99.90
45008;DHT22;30743;52.008;5.644;2023-04-26T05:45:52;9.90;99.90
45008;DHT22;30743;52.008;5.644;2023-04-26T05:48:19;10.00;99.90
45008;DHT22;30743;52.008;5.644;2023-04-26T05:50:44;10.10;99.90
45008;DHT22;30743;52.008;5.644;2023-04-26T05:53:10;10.20;99.90
45008;DHT22;30743;52.008;5.644;2023-04-26T05:55:35;10.30;99.90
45008;DHT22;30743;52.008;5.644;2023-04-26T05:58:01;10.50;99.90
45008;DHT22;30743;52.008;5.644;2023-04-26T06:00:27;10.60;99.90
45008;DHT22;30743;52.008;5.644;2023-04-26T06:02:52;10.70;99.90
45008;DHT22;30743;52.008;5.644;2023-04-26T06:05:18;10.90;99.90
45008;DHT22;30743;52.008;5.644;2023-04-26T06:07:44;11.10;99.90
45008;DHT22;30743;52.008;5.644;2023-04-26T06:10:10;11.30;99.90
45008;DHT22;30743;52.008;5.644;2023-04-26T06:12:37;11.50;99.90
45008;DHT22;30743;52.008;5.644;2023-04-26T06:15:03;11.70;99.90
45008;DHT22;30743;52.008;5.644;2023-04-26T06:17:28;11.90;99.90
45008;DHT22;30743;52.008;5.644;2023-04-26T06:19:54;12.10;99.90
45008;DHT22;30743;52.008;5.644;2023-04-26T06:22:19;12.20;99.90
45008;DHT22;30743;52.008;5.644;2023-04-26T06:24:45;12.40;99.90
45008;DHT22;30743;52.008;5.644;2023-04-26T06:27:10;12.70;99.90
45008;DHT22;30743;52.008;5.644;2023-04-26T06:29:36;12.90;99.90
45008;DHT22;30743;52.008;5.644;2023-04-26T06:32:01;13.10;99.90
45008;DHT22;30743;52.008;5.644;2023-04-26T06:34:27;13.30;99.90
45008;DHT22;30743;52.008;5.644;2023-04-26T06:36:52;13.40;99.90
45008;DHT22;30743;52.008;5.644;2023-04-26T06:39:18;13.60;99.90
45008;DHT22;30743;52.008;5.644;2023-04-26T06:41:43;13.70;99.90
45008;DHT22;30743;52.008;5.644;2023-04-26T06:44:09;13.90;99.90
45008;DHT22;30743;52.008;5.644;2023-04-26T06:46:34;14.00;99.90
45008;DHT22;30743;52.008;5.644;2023-04-26T06:49:02;14.20;99.90
45008;DHT22;30743;52.008;5.644;2023-04-26T06:51:28;14.40;99.90
45008;DHT22;30743;52.008;5.644;2023-04-26T06:53:54;14.80;99.90
45008;DHT22;30743;52.008;5.644;2023-04-26T06:56:21;14.60;99.90
45008;DHT22;30743;52.008;5.644;2023-04-26T06:59:01;14.80;99.90
45008;DHT22;30743;52.008;5.644;2023-04-26T07:01:28;15.00;99.90
45008;DHT22;30743;52.008;5.644;2023-04-26T07:03:55;14.90;99.90
45008;DHT22;30743;52.008;5.644;2023-04-26T07:06:22;14.80;99.90
45008;DHT22;30743;52.008;5.644;2023-04-26T07:08:47;14.90;99.90
45008;DHT22;30743;52.008;5.644;2023-04-26T07:11:14;15.10;99.90
45008;DHT22;30743;52.008;5.644;2023-04-26T07:13:40;15.00;99.90
45008;DHT22;30743;52.008;5.644;2023-04-26T07:16:05;15.00;99.90
45008;DHT22;30743;52.008;5.644;2023-04-26T07:18:31;15.20;99.90
45008;DHT22;30743;52.008;5.644;2023-04-26T07:20:56;15.10;99.90
45008;DHT22;30743;52.008;5.644;2023-04-26T07:23:22;15.10;99.90
45008;DHT22;30743;52.008;5.644;2023-04-26T07:25:47;15.20;99.90
45008;DHT22;30743;52.008;5.644;2023-04-26T07:28:13;15.00;99.90
45008;DHT22;30743;52.008;5.644;2023-04-26T07:30:39;14.80;99.90
45008;DHT22;30743;52.008;5.644;2023-04-26T07:33:04;14.80;99.90
45008;DHT22;30743;52.008;5.644;2023-04-26T07:35:30;14.90;99.90
45008;DHT22;30743;52.008;5.644;2023-04-26T07:37:56;15.00;99.90
45008;DHT22;30743;52.008;5.644;2023-04-26T07:40:21;15.00;99.90
45008;DHT22;30743;52.008;5.644;2023-04-26T07:42:49;15.00;99.90
45008;DHT22;30743;52.008;5.644;2023-04-26T07:45:14;15.10;99.90
45008;DHT22;30743;52.008;5.644;2023-04-26T07:47:40;14.80;99.90
45008;DHT22;30743;52.008;5.644;2023-04-26T07:50:06;14.80;99.90
45008;DHT22;30743;52.008;5.644;2023-04-26T07:52:33;14.80;99.90
45008;DHT22;30743;52.008;5.644;2023-04-26T07:54:58;14.90;99.90
45008;DHT22;30743;52.008;5.644;2023-04-26T07:57:24;15.20;99.90
45008;DHT22;30743;52.008;5.644;2023-04-26T07:59:49;15.30;99.90
45008;DHT22;30743;52.008;5.644;2023-04-26T08:02:15;15.30;99.90
45008;DHT22;30743;52.008;5.644;2023-04-26T08:04:46;15.40;99.90
45008;DHT22;30743;52.008;5.644;2023-04-26T08:07:14;15.30;99.90
45008;DHT22;30743;52.008;5.644;2023-04-26T08:09:39;15.40;99.90
45008;DHT22;30743;52.008;5.644;2023-04-26T08:12:05;15.30;99.90
45008;DHT22;30743;52.008;5.644;2023-04-26T08:14:31;15.40;99.90
45008;DHT22;30743;52.008;5.644;2023-04-26T08:16:58;15.50;99.90
45008;DHT22;30743;52.008;5.644;2023-04-26T08:19:24;15.70;99.80
45008;DHT22;30743;52.008;5.644;2023-04-26T08:21:51;15.80;99.90
45008;DHT22;30743;52.008;5.644;2023-04-26T08:24:16;16.00;99.90
45008;DHT22;30743;52.008;5.644;2023-04-26T08:26:42;16.20;99.90
45008;DHT22;30743;52.008;5.644;2023-04-26T08:29:07;16.30;99.60
45008;DHT22;30743;52.008;5.644;2023-04-26T08:31:33;16.60;99.90
45008;DHT22;30743;52.008;5.644;2023-04-26T08:33:59;16.70;99.50
45008;DHT22;30743;52.008;5.644;2023-04-26T08:36:24;16.90;99.50
45008;DHT22;30743;52.008;5.644;2023-04-26T08:38:50;16.80;98.80
45008;DHT22;30743;52.008;5.644;2023-04-26T08:41:20;16.90;99.10
45008;DHT22;30743;52.008;5.644;2023-04-26T08:43:48;16.70;98.60
45008;DHT22;30743;52.008;5.644;2023-04-26T08:46:14;16.70;97.40
45008;DHT22;30743;52.008;5.644;2023-04-26T08:48:42;16.50;97.20
45008;DHT22;30743;52.008;5.644;2023-04-26T08:51:09;16.40;97.10
45008;DHT22;30743;52.008;5.644;2023-04-26T08:53:38;16.40;97.30
45008;DHT22;30743;52.008;5.644;2023-04-26T08:56:04;16.30;97.30
45008;DHT22;30743;52.008;5.644;2023-04-26T08:58:30;16.20;97.40
45008;DHT22;30743;52.008;5.644;2023-04-26T09:00:57;16.00;98.10
45008;DHT22;30743;52.008;5.644;2023-04-26T09:03:24;15.90;98.70
45008;DHT22;30743;52.008;5.644;2023-04-26T09:05:51;15.70;98.80
45008;DHT22;30743;52.008;5.644;2023-04-26T09:08:17;15.70;99.30
45008;DHT22;30743;52.008;5.644;2023-04-26T09:10:44;15.70;99.20
45008;DHT22;30743;52.008;5.644;2023-04-26T09:13:09;15.80;99.10
45008;DHT22;30743;52.008;5.644;2023-04-26T09:15:35;15.80;98.70
45008;DHT22;30743;52.008;5.644;2023-04-26T09:18:21;15.90;98.60
45008;DHT22;30743;52.008;5.644;2023-04-26T09:21:07;15.90;98.60
45008;DHT22;30743;52.008;5.644;2023-04-26T09:23:33;16.00;98.10
45008;DHT22;30743;52.008;5.644;2023-04-26T09:26:18;16.00;97.40
45008;DHT22;30743;52.008;5.644;2023-04-26T09:28:43;16.30;98.00
45008;DHT22;30743;52.008;5.644;2023-04-26T09:31:10;16.60;98.90
45008;DHT22;30743;52.008;5.644;2023-04-26T09:33:57;17.00;99.00
45008;DHT22;30743;52.008;5.644;2023-04-26T09:36:23;16.70;96.40
45008;DHT22;30743;52.008;5.644;2023-04-26T09:38:48;16.70;96.60
45008;DHT22;30743;52.008;5.644;2023-04-26T09:41:14;16.80;96.60
45008;DHT22;30743;52.008;5.644;2023-04-26T09:43:39;16.90;97.20
45008;DHT22;30743;52.008;5.644;2023-04-26T09:46:05;16.80;97.40
45008;DHT22;30743;52.008;5.644;2023-04-26T09:48:33;16.80;96.70
45008;DHT22;30743;52.008;5.644;2023-04-26T09:53:31;16.60;96.60
45008;DHT22;30743;52.008;5.644;2023-04-26T09:56:25;16.10;96.50
45008;DHT22;30743;52.008;5.644;2023-04-26T09:58:56;15.80;96.70
45008;DHT22;30743;52.008;5.644;2023-04-26T10:01:29;15.70;96.90
45008;DHT22;30743;52.008;5.644;2023-04-26T10:03:56;15.50;97.10
45008;DHT22;30743;52.008;5.644;2023-04-26T10:06:22;15.70;97.60
45008;DHT22;30743;52.008;5.644;2023-04-26T10:08:47;15.50;98.40
45008;DHT22;30743;52.008;5.644;2023-04-26T10:11:13;15.40;98.60
45008;DHT22;30743;52.008;5.644;2023-04-26T10:13:39;15.20;98.20
45008;DHT22;30743;52.008;5.644;2023-04-26T10:16:06;15.20;98.30
45008;DHT22;30743;52.008;5.644;2023-04-26T10:18:34;15.20;97.80
45008;DHT22;30743;52.008;5.644;2023-04-26T10:21:15;15.10;98.00
45008;DHT22;30743;52.008;5.644;2023-04-26T10:23:44;15.20;98.10
45008;DHT22;30743;52.008;5.644;2023-04-26T10:29:13;15.00;98.90
45008;DHT22;30743;52.008;5.644;2023-04-26T10:32:04;14.90;98.90
45008;DHT22;30743;52.008;5.644;2023-04-26T10:34:32;14.90;99.00
45008;DHT22;30743;52.008;5.644;2023-04-26T10:37:11;14.80;99.00
45008;DHT22;30743;52.008;5.644;2023-04-26T10:39:44;15.00;99.20
45008;DHT22;30743;52.008;5.644;2023-04-26T10:42:27;15.00;98.60
45008;DHT22;30743;52.008;5.644;2023-04-26T10:45:27;15.10;99.20
45008;DHT22;30743;52.008;5.644;2023-04-26T10:59:11;16.00;98.70
45008;DHT22;30743;52.008;5.644;2023-04-26T11:01:38;16.00;98.60
45008;DHT22;30743;52.008;5.644;2023-04-26T11:04:07;16.20;98.50
45008;DHT22;30743;52.008;5.644;2023-04-26T11:06:52;16.50;98.40
45008;DHT22;30743;52.008;5.644;2023-04-26T11:09:38;16.60;97.90
45008;DHT22;30743;52.008;5.644;2023-04-26T11:12:09;16.90;98.40
45008;DHT22;30743;52.008;5.644;2023-04-26T11:14:35;17.10;98.70
45008;DHT22;30743;52.008;5.644;2023-04-26T11:17:08;17.20;98.60
45008;DHT22;30743;52.008;5.644;2023-04-26T11:19:34;17.30;97.90
45008;DHT22;30743;52.008;5.644;2023-04-26T11:22:00;17.60;96.70
45008;DHT22;30743;52.008;5.644;2023-04-26T11:24:27;17.10;96.20
45008;DHT22;30743;52.008;5.644;2023-04-26T11:26:54;16.70;97.00
45008;DHT22;30743;52.008;5.644;2023-04-26T11:29:20;16.70;97.50
45008;DHT22;30743;52.008;5.644;2023-04-26T11:31:54;16.90;97.50
45008;DHT22;30743;52.008;5.644;2023-04-26T11:34:35;17.00;96.80
45008;DHT22;30743;52.008;5.644;2023-04-26T11:37:01;16.70;97.10
45008;DHT22;30743;52.008;5.644;2023-04-26T11:39:27;17.00;96.80
45008;DHT22;30743;52.008;5.644;2023-04-26T11:42:12;17.20;96.80
45008;DHT22;30743;52.008;5.644;2023-04-26T11:44:38;17.50;95.90
45008;DHT22;30743;52.008;5.644;2023-04-26T11:47:05;17.80;96.10
45008;DHT22;30743;52.008;5.644;2023-04-26T11:49:32;18.00;95.10
45008;DHT22;30743;52.008;5.644;2023-04-26T11:51:58;18.10;94.90
45008;DHT22;30743;52.008;5.644;2023-04-26T11:54:31;18.50;94.90
45008;DHT22;30743;52.008;5.644;2023-04-26T11:56:57;18.30;94.40
45008;DHT22;30743;52.008;5.644;2023-04-26T11:59:32;18.50;95.00
45008;DHT22;30743;52.008;5.644;2023-04-26T12:01:57;18.10;94.40
45008;DHT22;30743;52.008;5.644;2023-04-26T12:04:30;18.10;95.50
45008;DHT22;30743;52.008;5.644;2023-04-26T12:06:56;18.30;94.70
45008;DHT22;30743;52.008;5.644;2023-04-26T12:09:29;18.30;94.80
45008;DHT22;30743;52.008;5.644;2023-04-26T12:12:01;18.40;94.90
45008;DHT22;30743;52.008;5.644;2023-04-26T12:14:46;18.50;94.50
45008;DHT22;30743;52.008;5.644;2023-04-26T12:17:14;18.10;93.10
45008;DHT22;30743;52.008;5.644;2023-04-26T12:19:39;18.10;92.60
45008;DHT22;30743;52.008;5.644;2023-04-26T12:22:06;18.30;92.80
45008;DHT22;30743;52.008;5.644;2023-04-26T12:24:33;18.10;94.20
45008;DHT22;30743;52.008;5.644;2023-04-26T12:27:01;17.60;93.30
45008;DHT22;30743;52.008;5.644;2023-04-26T12:29:27;17.70;93.50
45008;DHT22;30743;52.008;5.644;2023-04-26T12:31:55;17.70;93.50
45008;DHT22;30743;52.008;5.644;2023-04-26T12:34:20;17.80;94.20
45008;DHT22;30743;52.008;5.644;2023-04-26T12:36:46;17.50;94.40
45008;DHT22;30743;52.008;5.644;2023-04-26T12:39:12;17.60;95.50
45008;DHT22;30743;52.008;5.644;2023-04-26T12:41:40;17.50;94.60
45008;DHT22;30743;52.008;5.644;2023-04-26T12:44:07;17.40;95.50
45008;DHT22;30743;52.008;5.644;2023-04-26T12:46:33;16.90;95.00
45008;DHT22;30743;52.008;5.644;2023-04-26T12:48:58;17.10;95.80
45008;DHT22;30743;52.008;5.644;2023-04-26T12:51:24;16.70;95.90
45008;DHT22;30743;52.008;5.644;2023-04-26T12:53:49;16.40;95.80
45008;DHT22;30743;52.008;5.644;2023-04-26T12:56:16;16.20;96.20
45008;DHT22;30743;52.008;5.644;2023-04-26T12:58:41;16.30;96.00
45008;DHT22;30743;52.008;5.644;2023-04-26T13:01:07;16.50;96.10
45008;DHT22;30743;52.008;5.644;2023-04-26T13:03:33;16.90;97.10
45008;DHT22;30743;52.008;5.644;2023-04-26T13:05:58;17.10;95.40
45008;DHT22;30743;52.008;5.644;2023-04-26T13:08:24;17.50;95.20
45008;DHT22;30743;52.008;5.644;2023-04-26T13:10:50;17.80;94.20
45008;DHT22;30743;52.008;5.644;2023-04-26T13:13:15;18.10;94.80
45008;DHT22;30743;52.008;5.644;2023-04-26T13:15:41;18.40;95.40
45008;DHT22;30743;52.008;5.644;2023-04-26T13:18:07;18.70;94.80
45008;DHT22;30743;52.008;5.644;2023-04-26T13:20:32;19.20;94.40
45008;DHT22;30743;52.008;5.644;2023-04-26T13:22:58;19.50;94.80
45008;DHT22;30743;52.008;5.644;2023-04-26T13:25:23;19.50;94.00
45008;DHT22;30743;52.008;5.644;2023-04-26T13:27:49;19.50;94.20
45008;DHT22;30743;52.008;5.644;2023-04-26T13:30:17;19.50;93.00
45008;DHT22;30743;52.008;5.644;2023-04-26T13:32:43;19.70;93.30
45008;DHT22;30743;52.008;5.644;2023-04-26T13:35:08;19.80;93.60
45008;DHT22;30743;52.008;5.644;2023-04-26T13:37:36;19.30;93.00
45008;DHT22;30743;52.008;5.644;2023-04-26T13:40:02;19.40;91.60
45008;DHT22;30743;52.008;5.644;2023-04-26T13:42:28;19.60;92.40
45008;DHT22;30743;52.008;5.644;2023-04-26T13:44:54;19.70;92.50
45008;DHT22;30743;52.008;5.644;2023-04-26T13:47:20;19.90;91.20
45008;DHT22;30743;52.008;5.644;2023-04-26T13:49:45;19.90;91.40
45008;DHT22;30743;52.008;5.644;2023-04-26T13:52:11;19.90;91.80
45008;DHT22;30743;52.008;5.644;2023-04-26T13:54:37;20.00;90.90
45008;DHT22;30743;52.008;5.644;2023-04-26T13:57:04;20.00;91.10
45008;DHT22;30743;52.008;5.644;2023-04-26T13:59:30;19.70;90.90
45008;DHT22;30743;52.008;5.644;2023-04-26T14:01:56;19.70;91.30
45008;DHT22;30743;52.008;5.644;2023-04-26T14:04:21;19.70;91.80
45008;DHT22;30743;52.008;5.644;2023-04-26T14:06:47;19.60;91.20
45008;DHT22;30743;52.008;5.644;2023-04-26T14:09:12;19.60;91.20
45008;DHT22;30743;52.008;5.644;2023-04-26T14:11:38;19.40;91.00
45008;DHT22;30743;52.008;5.644;2023-04-26T14:14:04;19.30;91.40
45008;DHT22;30743;52.008;5.644;2023-04-26T14:16:29;19.10;91.50
45008;DHT22;30743;52.008;5.644;2023-04-26T14:18:55;18.70;91.30
45008;DHT22;30743;52.008;5.644;2023-04-26T14:21:20;18.50;92.40
45008;DHT22;30743;52.008;5.644;2023-04-26T14:23:46;18.50;93.00
45008;DHT22;30743;52.008;5.644;2023-04-26T14:26:12;18.50;93.50
45008;DHT22;30743;52.008;5.644;2023-04-26T14:28:37;18.30;92.90
45008;DHT22;30743;52.008;5.644;2023-04-26T14:31:03;18.30;93.30
45008;DHT22;30743;52.008;5.644;2023-04-26T14:33:29;18.30;93.30
45008;DHT22;30743;52.008;5.644;2023-04-26T14:35:54;18.40;92.90
45008;DHT22;30743;52.008;5.644;2023-04-26T14:38:20;18.40;92.20
45008;DHT22;30743;52.008;5.644;2023-04-26T14:40:46;18.40;91.70
45008;DHT22;30743;52.008;5.644;2023-04-26T14:43:12;18.30;92.30
45008;DHT22;30743;52.008;5.644;2023-04-26T14:45:37;18.30;92.60
45008;DHT22;30743;52.008;5.644;2023-04-26T14:48:06;18.30;92.60
45008;DHT22;30743;52.008;5.644;2023-04-26T14:50:31;18.10;92.20
45008;DHT22;30743;52.008;5.644;2023-04-26T14:52:57;18.20;92.20
45008;DHT22;30743;52.008;5.644;2023-04-26T14:55:22;18.00;92.30
45008;DHT22;30743;52.008;5.644;2023-04-26T14:57:48;18.10;93.10
45008;DHT22;30743;52.008;5.644;2023-04-26T15:00:15;18.00;92.80
45008;DHT22;30743;52.008;5.644;2023-04-26T15:02:42;17.70;92.70
45008;DHT22;30743;52.008;5.644;2023-04-26T15:05:11;17.20;93.70
45008;DHT22;30743;52.008;5.644;2023-04-26T15:07:38;17.20;94.40
45008;DHT22;30743;52.008;5.644;2023-04-26T15:10:04;17.20;94.40
45008;DHT22;30743;52.008;5.644;2023-04-26T15:12:30;17.00;93.80
45008;DHT22;30743;52.008;5.644;2023-04-26T15:14:56;16.90;93.90
45008;DHT22;30743;52.008;5.644;2023-04-26T15:17:22;16.40;94.70
45008;DHT22;30743;52.008;5.644;2023-04-26T15:19:47;16.20;94.50
45008;DHT22;30743;52.008;5.644;2023-04-26T15:22:13;16.10;94.70
45008;DHT22;30743;52.008;5.644;2023-04-26T15:24:38;15.60;94.60
45008;DHT22;30743;52.008;5.644;2023-04-26T15:27:04;15.70;94.50
45008;DHT22;30743;52.008;5.644;2023-04-26T15:29:31;15.60;95.20
45008;DHT22;30743;52.008;5.644;2023-04-26T15:31:57;15.60;94.60
45008;DHT22;30743;52.008;5.644;2023-04-26T15:34:22;15.60;94.80
45008;DHT22;30743;52.008;5.644;2023-04-26T15:36:49;15.80;96.00
45008;DHT22;30743;52.008;5.644;2023-04-26T15:39:15;15.80;95.00
45008;DHT22;30743;52.008;5.644;2023-04-26T15:41:41;15.80;94.80
45008;DHT22;30743;52.008;5.644;2023-04-26T15:44:06;16.00;95.00
45008;DHT22;30743;52.008;5.644;2023-04-26T15:46:32;16.20;95.10
45008;DHT22;30743;52.008;5.644;2023-04-26T15:48:57;16.50;94.60
45008;DHT22;30743;52.008;5.644;2023-04-26T15:51:23;16.70;95.00